LFBZ

Biarritz-Bayonne/Anglet

Airport
ICAO code
LFBZ
Summary
ICAO Region
EUR
ICAO Territory
Location

Biarritz-Bayonne/Anglet, Aquitaine,

Coordinates
43° 28' 6" N , 1° 31' 23" W
KCC
Airport WX
Fog
Metar
Observation
LFBZ 012330Z AUTO 10004KT 6000 BKN017 OVC049 04/04 Q1020 TEMPO 3000 BR
Station
Biarritz
Date/Time
2022-12-01 23:30:00
Wind direction
100°
Wind speed
04 kts
Lowest cloud amount
broken clouds
Temperature
4°C
Dew point
4°C
Humidity
100%
QNH
1020 hPa
Weather condition
n/a

Description

International airport serving Biarritz.

Climatology

Temperate Marine climate/Oceanic climate (Köppen climate classification Cfb). Moderately cool summer and comparatively warm winter with a temperature range of only 14°C. Prevailing south-westerly winds from the Atlantic Ocean.

Runways

Designator Length Width Surface Rops
9/27 2250 45 ASP Yes/Yes

Airport map

Aerial View

SKYbrary Partners:

Safety knowledge contributed by: